Time;durP1;ratioP1;P1;durP2;ratioP2;P2;SDS_P1;SDS_P2;PMS_P1;PMS_P2;Temp;Humidity;BMP_temperature;BMP_pressure;BME280_temperature;BME280_humidity;BME280_pressure;Samples;Min_cycle;Max_cycle;Signal;HPM_P1;HPM_P2
2022/03/16 00:01:51;;;;;;;23.05;16.00;;;;;;;8.32;63.69;102313.44;5007445;28;102244;-81
2022/03/16 00:04:18;;;;;;;22.40;15.57;;;;;;;8.31;64.04;102321.81;5008335;28;102599;-81
2022/03/16 00:06:45;;;;;;;23.33;14.40;;;;;;;8.31;63.54;102317.19;5011860;28;102561;-81
2022/03/16 00:09:11;;;;;;;21.52;14.98;;;;;;;8.31;63.52;102314.50;5011280;28;103946;-81
2022/03/16 00:11:38;;;;;;;17.77;13.65;;;;;;;8.29;63.42;102308.44;5007940;28;102053;-81
2022/03/16 00:14:04;;;;;;;22.23;15.00;;;;;;;8.29;64.25;102305.72;5010536;28;101963;-80
2022/03/16 00:16:31;;;;;;;20.67;14.60;;;;;;;8.29;64.39;102305.72;5010022;28;102251;-81
2022/03/16 00:18:59;;;;;;;20.05;14.80;;;;;;;8.29;63.85;102308.44;5002812;28;103871;-81
2022/03/16 00:21:25;;;;;;;17.70;13.38;;;;;;;8.28;63.67;102309.50;5005007;28;102014;-81
2022/03/16 00:23:52;;;;;;;20.17;13.73;;;;;;;8.28;64.42;102301.34;5014149;28;102443;-81
2022/03/16 00:26:19;;;;;;;16.95;13.27;;;;;;;8.27;63.89;102302.41;5008811;28;102569;-82
2022/03/16 00:28:46;;;;;;;17.38;13.35;;;;;;;8.27;64.15;102298.88;5014666;28;103832;-80
2022/03/16 00:31:12;;;;;;;18.40;13.52;;;;;;;8.27;63.93;102296.16;5015028;28;102227;-81
2022/03/16 00:33:38;;;;;;;18.38;13.32;;;;;;;8.26;63.91;102292.63;5015527;28;102173;-81
2022/03/16 00:36:06;;;;;;;18.73;13.05;;;;;;;8.25;63.52;102290.94;5015909;28;102591;-80
2022/03/16 00:38:33;;;;;;;18.17;12.57;;;;;;;8.24;64.05;102294.72;5014782;28;104287;-82
2022/03/16 00:40:59;;;;;;;17.20;11.93;;;;;;;8.23;63.46;102293.06;5015354;28;102157;-81
2022/03/16 00:43:26;;;;;;;16.90;11.88;;;;;;;8.22;63.55;102291.38;5015023;28;103519;-81
2022/03/16 00:45:53;;;;;;;18.25;12.25;;;;;;;8.22;64.27;102288.66;5014202;28;102756;-82
2022/03/16 00:48:20;;;;;;;17.15;12.43;;;;;;;8.23;63.60;102293.06;5009624;28;103731;-79
2022/03/16 00:50:49;;;;;;;17.75;12.45;;;;;;;8.23;63.65;102290.34;5013269;28;102173;-81
2022/03/16 00:53:17;;;;;;;19.20;12.05;;;;;;;8.24;63.62;102297.41;5014960;28;102227;-80
2022/03/16 00:55:44;;;;;;;15.90;11.20;;;;;;;8.25;63.85;102296.38;5015418;28;102490;-82
2022/03/16 00:58:10;;;;;;;15.07;11.48;;;;;;;8.25;64.26;102296.38;5010387;28;104182;-80
2022/03/16 01:00:37;;;;;;;16.42;11.95;;;;;;;8.27;64.06;102293.44;5014149;28;102411;-80
2022/03/16 01:03:04;;;;;;;16.45;11.32;;;;;;;8.26;64.45;102298.03;5015509;28;102440;-80
2022/03/16 01:05:32;;;;;;;15.57;11.68;;;;;;;8.25;64.33;102301.78;5016321;28;102812;-80
2022/03/16 01:07:59;;;;;;;17.30;11.73;;;;;;;8.25;63.71;102304.50;5014591;28;104086;-80
2022/03/16 01:10:27;;;;;;;16.33;11.90;;;;;;;8.26;63.65;102291.75;5014598;28;102300;-80
2022/03/16 01:12:55;;;;;;;16.20;11.98;;;;;;;8.26;63.73;102302.63;5012850;28;102024;-80
2022/03/16 01:15:23;;;;;;;17.80;11.43;;;;;;;8.25;63.65;102301.78;5017058;28;102243;-80
2022/03/16 01:17:50;;;;;;;15.55;10.90;;;;;;;8.26;64.27;102302.63;5015750;28;103825;-80
2022/03/16 01:20:17;;;;;;;15.07;11.20;;;;;;;8.25;64.12;102290.09;5016065;28;102279;-80
2022/03/16 01:22:44;;;;;;;14.60;11.23;;;;;;;8.25;63.98;102299.06;4998694;28;102484;-80
2022/03/16 01:25:11;;;;;;;16.98;11.63;;;;;;;8.25;64.72;102296.38;4997034;28;102513;-80
2022/03/16 01:27:38;;;;;;;15.40;10.82;;;;;;;8.26;63.65;102299.91;4995937;28;103987;-80
2022/03/16 01:30:08;;;;;;;16.23;11.00;;;;;;;8.26;63.73;102289.91;5014872;28;102539;-80
2022/03/16 01:32:35;;;;;;;18.30;11.27;;;;;;;8.25;63.91;102290.09;5014450;28;102185;-80
2022/03/16 01:35:01;;;;;;;14.30;10.80;;;;;;;8.25;63.94;102290.94;5018899;28;102153;-80
2022/03/16 01:37:30;;;;;;;13.98;10.23;;;;;;;8.24;63.77;102278.44;5017596;28;103862;-80
2022/03/16 01:39:56;;;;;;;15.52;11.50;;;;;;;8.26;63.88;102275.50;5018355;28;102259;-80
2022/03/16 01:42:23;;;;;;;13.65;10.60;;;;;;;8.25;64.15;102280.09;5016353;28;102295;-80
2022/03/16 01:44:53;;;;;;;17.00;11.35;;;;;;;8.26;63.93;102291.75;5016651;28;101983;-80
2022/03/16 01:47:21;;;;;;;16.23;10.50;;;;;;;8.26;64.13;102289.06;5015868;28;103881;-79
2022/03/16 01:49:50;;;;;;;14.35;10.75;;;;;;;8.27;64.30;102288.03;5017292;28;102699;-80
2022/03/16 01:52:19;;;;;;;15.27;10.88;;;;;;;8.27;64.17;102294.28;4998222;28;102331;-80
2022/03/16 01:54:46;;;;;;;16.65;10.85;;;;;;;8.26;64.70;102289.06;5017438;28;102580;-80
2022/03/16 01:57:15;;;;;;;13.85;10.38;;;;;;;8.26;64.01;102283.63;4999132;28;104110;-80
2022/03/16 01:59:42;;;;;;;13.88;10.80;;;;;;;8.26;63.96;102280.91;4997177;28;102197;-81
2022/03/16 02:02:11;;;;;;;14.10;10.20;;;;;;;8.26;64.54;102276.34;5008350;28;102609;-80
2022/03/16 02:04:38;;;;;;;15.32;10.55;;;;;;;8.25;63.73;102282.81;5013855;28;103814;-80
2022/03/16 02:07:05;;;;;;;14.80;9.82;;;;;;;8.26;63.74;102279.06;5013783;28;103698;-80
2022/03/16 02:09:34;;;;;;;14.23;10.30;;;;;;;8.27;63.71;102293.44;5014305;28;102520;-80
2022/03/16 02:12:02;;;;;;;14.52;10.15;;;;;;;8.27;63.92;102294.28;5008604;28;102706;-80
2022/03/16 02:14:36;;;;;;;13.73;9.98;;;;;;;8.26;63.64;102298.03;5013563;28;101979;-80
2022/03/16 02:17:04;;;;;;;13.43;9.95;;;;;;;8.27;64.54;102304.31;5013057;28;104488;-80
2022/03/16 02:19:32;;;;;;;13.73;9.95;;;;;;;8.26;64.20;102303.47;5011944;28;102420;-80
2022/03/16 02:22:02;;;;;;;11.80;9.85;;;;;;;8.27;63.46;102304.31;5013408;28;102320;-80
2022/03/16 02:24:30;;;;;;;13.02;10.48;;;;;;;8.27;64.22;102305.13;4993617;28;102148;-80
2022/03/16 02:26:57;;;;;;;13.18;9.55;;;;;;;8.26;64.02;102300.75;5001082;28;103950;-80
2022/03/16 02:29:27;;;;;;;11.60;9.38;;;;;;;8.27;64.03;102309.72;4998586;28;102326;-80
2022/03/16 02:31:53;;;;;;;11.45;9.23;;;;;;;8.27;63.86;102310.56;5012555;28;102444;-81
2022/03/16 02:34:27;;;;;;;15.07;10.13;;;;;;;8.26;63.61;102306.19;5013625;28;102613;-80
2022/03/16 02:36:54;;;;;;;13.18;9.75;;;;;;;8.26;64.31;102311.59;5011157;28;103711;-80
2022/03/16 02:39:20;;;;;;;10.63;9.20;;;;;;;8.26;63.96;102314.31;5012917;28;102471;-80
2022/03/16 02:41:50;;;;;;;12.27;9.52;;;;;;;8.25;64.52;102320.78;5012923;28;101898;-80
2022/03/16 02:44:17;;;;;;;12.75;9.60;;;;;;;8.25;63.63;102312.63;5012438;28;102585;-80
2022/03/16 02:46:44;;;;;;;14.05;10.30;;;;;;;8.25;63.90;102312.63;5012791;28;103841;-80
2022/03/16 02:49:10;;;;;;;13.45;9.52;;;;;;;8.25;63.68;102307.22;5013577;28;102563;-80
2022/03/16 02:51:37;;;;;;;14.18;9.75;;;;;;;8.23;63.76;102309.31;5012192;28;102091;-80
2022/03/16 02:54:04;;;;;;;13.15;9.85;;;;;;;8.25;63.91;102307.22;5013301;28;102704;-80
2022/03/16 02:56:32;;;;;;;13.98;9.35;;;;;;;8.25;63.48;102306.38;5012473;28;103940;-80
2022/03/16 02:59:00;;;;;;;14.90;10.23;;;;;;;8.24;64.56;102304.72;5012784;28;102030;-80
2022/03/16 03:01:26;;;;;;;12.88;9.38;;;;;;;8.25;63.72;102307.22;5012937;28;102033;-80
2022/03/16 03:04:13;;;;;;;12.02;9.35;;;;;;;8.25;63.64;102309.94;5013371;28;102231;-80
2022/03/16 03:06:39;;;;;;;14.90;10.02;;;;;;;8.23;64.14;102306.63;5012391;28;104217;-80
2022/03/16 03:09:08;;;;;;;11.32;8.85;;;;;;;8.23;64.22;102306.63;5013108;28;102590;-80
2022/03/16 03:11:35;;;;;;;12.00;9.90;;;;;;;8.23;63.99;102297.66;5012311;28;102631;-80
2022/03/16 03:14:03;;;;;;;12.65;9.25;;;;;;;8.24;63.79;102308.28;5013373;28;104417;-80
2022/03/16 03:16:29;;;;;;;13.20;10.13;;;;;;;8.23;64.24;102298.47;5012446;28;104819;-80
2022/03/16 03:18:56;;;;;;;12.57;9.85;;;;;;;8.24;63.54;102297.41;5012248;28;102382;-81
2022/03/16 03:21:23;;;;;;;12.73;10.00;;;;;;;8.23;64.09;102303.91;5009278;28;102169;-80
2022/03/16 03:23:49;;;;;;;15.07;10.43;;;;;;;8.23;63.44;102295.75;5012444;28;104113;-80
2022/03/16 03:26:16;;;;;;;11.60;9.20;;;;;;;8.23;64.25;102293.06;5012529;28;104096;-80
2022/03/16 03:28:42;;;;;;;11.02;9.25;;;;;;;8.21;63.97;102289.72;5012457;28;102158;-80
2022/03/16 03:31:10;;;;;;;15.05;9.63;;;;;;;8.21;64.03;102289.72;5012175;28;101966;-80
2022/03/16 03:33:57;;;;;;;11.68;9.35;;;;;;;8.21;64.23;102294.31;5010549;28;102218;-80
2022/03/16 03:36:25;;;;;;;12.02;9.45;;;;;;;8.20;63.99;102298.91;5012586;28;103891;-80
2022/03/16 03:38:52;;;;;;;11.82;9.50;;;;;;;8.21;63.96;102300.56;5012182;28;102012;-81
2022/03/16 03:41:19;;;;;;;16.02;10.55;;;;;;;8.21;63.75;102292.44;5011668;28;102411;-80
2022/03/16 03:43:46;;;;;;;13.80;10.30;;;;;;;8.22;64.13;102302.22;5010612;28;103857;-79
2022/03/16 03:46:14;;;;;;;14.15;9.98;;;;;;;8.22;64.13;102301.38;5011857;28;103981;-79
2022/03/16 03:48:40;;;;;;;14.05;10.48;;;;;;;8.20;64.24;102290.78;5013011;28;102774;-79
2022/03/16 03:51:07;;;;;;;10.35;9.18;;;;;;;8.19;63.89;102294.53;5011463;28;102381;-79
2022/03/16 03:53:34;;;;;;;14.10;10.10;;;;;;;8.18;63.59;102295.56;4993453;28;102342;-79
2022/03/16 03:56:01;;;;;;;15.32;10.23;;;;;;;8.17;64.20;102294.75;4998521;28;103884;-79
2022/03/16 03:58:27;;;;;;;13.80;9.80;;;;;;;8.17;63.83;102293.91;5000665;28;102077;-79
2022/03/16 04:00:53;;;;;;;13.48;10.13;;;;;;;8.15;64.23;102296.84;5018718;28;102414;-79
2022/03/16 04:03:21;;;;;;;14.57;10.32;;;;;;;8.15;63.37;102290.56;5015381;28;102375;-79
2022/03/16 04:05:48;;;;;;;12.20;9.77;;;;;;;8.14;63.52;102288.91;5017914;28;103957;-79
2022/03/16 04:08:14;;;;;;;11.63;9.07;;;;;;;8.14;63.56;102288.91;5019454;28;102131;-79
2022/03/16 04:10:41;;;;;;;12.38;9.30;;;;;;;8.13;63.52;102292.69;5017111;28;102514;-79
2022/03/16 04:13:07;;;;;;;12.57;9.40;;;;;;;8.13;63.73;102292.69;5002017;28;102237;-79
2022/03/16 04:15:37;;;;;;;14.43;8.95;;;;;;;8.12;63.55;102291.03;5001305;28;104007;-79
2022/03/16 04:18:05;;;;;;;11.63;9.07;;;;;;;8.12;63.27;102299.16;4999495;28;102229;-80
2022/03/16 04:20:32;;;;;;;14.30;9.57;;;;;;;8.09;64.30;102291.47;4998264;28;102265;-80
2022/03/16 04:23:09;;;;;;;13.50;9.90;;;;;;;8.08;63.71;102296.06;5020392;28;102432;-80
2022/03/16 04:25:36;;;;;;;11.13;9.00;;;;;;;8.07;63.44;102294.38;5003616;28;103919;-80
2022/03/16 04:28:03;;;;;;;11.35;9.30;;;;;;;8.07;63.61;102293.53;5015407;28;101964;-80
2022/03/16 04:30:32;;;;;;;10.25;8.75;;;;;;;8.07;63.03;102304.38;5017906;28;101938;-80
2022/03/16 04:32:58;;;;;;;12.98;9.68;;;;;;;8.07;63.48;102301.66;5000754;28;102546;-81
2022/03/16 04:35:25;;;;;;;12.35;10.10;;;;;;;8.07;63.18;102309.81;5003097;28;103879;-80
2022/03/16 04:37:53;;;;;;;14.43;9.50;;;;;;;8.07;63.00;102304.38;5017995;28;102490;-80
2022/03/16 04:40:19;;;;;;;11.90;9.23;;;;;;;8.08;63.98;102316.91;5017860;28;102044;-80
2022/03/16 04:42:49;;;;;;;14.27;9.00;;;;;;;8.07;63.37;102313.34;5018648;28;102071;-80
2022/03/16 04:45:16;;;;;;;11.80;9.57;;;;;;;8.07;63.18;102309.81;5014834;28;103963;-80
2022/03/16 04:47:42;;;;;;;11.27;9.00;;;;;;;8.06;63.47;102314.41;5017205;28;101991;-80
2022/03/16 04:50:09;;;;;;;12.05;9.75;;;;;;;8.05;63.12;102301.91;5018356;28;102397;-80
2022/03/16 04:52:42;;;;;;;12.32;9.77;;;;;;;8.05;63.50;102315.47;5015905;28;102214;-81
2022/03/16 04:55:11;;;;;;;12.63;10.25;;;;;;;8.05;63.45;102322.75;5018151;28;104062;-80
2022/03/16 04:57:38;;;;;;;12.03;10.17;;;;;;;8.06;63.55;102316.28;5018348;28;102162;-81
2022/03/16 05:00:06;;;;;;;11.68;9.15;;;;;;;8.05;63.05;102320.88;5018590;28;101947;-81
2022/03/16 05:02:32;;;;;;;13.98;9.95;;;;;;;8.05;63.90;102317.34;5018862;28;102358;-80
2022/03/16 05:04:59;;;;;;;11.70;9.25;;;;;;;8.05;63.51;102323.59;5018482;28;104153;-81
2022/03/16 05:07:26;;;;;;;13.20;9.85;;;;;;;8.06;63.25;102324.41;5013705;28;101936;-79
2022/03/16 05:09:52;;;;;;;15.20;10.63;;;;;;;8.06;63.12;102329.84;4995357;28;102278;-79
2022/03/16 05:12:20;;;;;;;14.05;10.00;;;;;;;8.05;63.03;102328.19;5015697;28;102248;-79
2022/03/16 05:14:47;;;;;;;11.98;8.95;;;;;;;8.05;63.15;102333.63;5014248;28;102980;-79
2022/03/16 05:17:13;;;;;;;14.50;9.57;;;;;;;8.05;62.88;102336.31;5014913;28;102407;-79
2022/03/16 05:19:41;;;;;;;13.15;9.57;;;;;;;8.04;63.24;102342.78;5013859;28;102477;-79
2022/03/16 05:22:08;;;;;;;14.25;9.68;;;;;;;8.05;63.54;102345.28;5014261;28;102121;-79
2022/03/16 05:24:35;;;;;;;13.07;9.60;;;;;;;8.04;63.41;102342.78;5012706;28;103988;-79
2022/03/16 05:27:02;;;;;;;11.32;9.15;;;;;;;8.03;62.53;102347.38;5014071;28;102345;-78
2022/03/16 05:29:30;;;;;;;11.88;8.93;;;;;;;8.03;62.98;102350.06;5013838;28;102724;-79
2022/03/16 05:31:57;;;;;;;12.45;9.52;;;;;;;8.05;63.78;102350.72;5015471;28;102523;-79
2022/03/16 05:34:26;;;;;;;11.65;9.27;;;;;;;8.07;63.61;102355.91;5013696;28;103915;-79
2022/03/16 05:36:52;;;;;;;12.45;9.35;;;;;;;8.06;62.18;102357.78;5014232;28;101951;-79
2022/03/16 05:39:19;;;;;;;13.65;9.35;;;;;;;8.04;62.21;102359.03;5012987;28;102672;-79
2022/03/16 05:41:45;;;;;;;10.93;9.07;;;;;;;8.04;63.09;102359.91;5013102;28;102076;-79
2022/03/16 05:44:12;;;;;;;12.18;9.18;;;;;;;8.02;62.70;102359.25;5012674;28;104291;-79
2022/03/16 05:46:39;;;;;;;14.10;9.02;;;;;;;8.03;63.73;102351.97;5014189;28;102262;-79
2022/03/16 05:49:06;;;;;;;14.10;9.57;;;;;;;8.05;62.69;102355.31;5013358;28;102289;-79
2022/03/16 05:51:32;;;;;;;12.18;8.90;;;;;;;8.03;62.91;102347.38;5015281;28;102346;-79
2022/03/16 05:53:59;;;;;;;14.10;8.82;;;;;;;8.03;62.38;102362.81;5014331;28;104005;-80
2022/03/16 05:56:25;;;;;;;14.35;8.80;;;;;;;8.03;63.05;102362.81;5013779;28;101917;-79
2022/03/16 05:58:52;;;;;;;12.20;8.98;;;;;;;8.04;63.62;102359.03;5013299;28;101999;-80
2022/03/16 06:01:19;;;;;;;13.27;8.38;;;;;;;8.03;62.76;102362.81;5014679;28;102260;-79
2022/03/16 06:03:47;;;;;;;11.80;8.30;;;;;;;8.04;62.25;102361.75;5013685;28;103928;-79
2022/03/16 06:06:16;;;;;;;10.73;8.32;;;;;;;8.03;62.70;102368.22;5012763;28;102308;-79
2022/03/16 06:08:43;;;;;;;12.15;8.45;;;;;;;8.03;63.68;102357.38;5012210;28;103548;-80
2022/03/16 06:11:10;;;;;;;12.73;8.75;;;;;;;8.03;63.55;102358.22;5014658;28;102072;-80
2022/03/16 06:13:36;;;;;;;13.07;8.18;;;;;;;8.04;62.90;102353.63;4992358;28;104060;-80
2022/03/16 06:16:04;;;;;;;12.85;8.38;;;;;;;8.05;63.23;102355.31;5013140;28;102741;-81
2022/03/16 06:18:30;;;;;;;12.73;7.65;;;;;;;8.03;62.56;102355.50;5010394;28;101951;-80
2022/03/16 06:20:58;;;;;;;11.15;7.85;;;;;;;8.03;62.89;102365.53;5010931;28;102135;-81
2022/03/16 06:23:25;;;;;;;10.77;7.75;;;;;;;8.03;63.34;102368.22;5005418;28;104142;-81
2022/03/16 06:25:52;;;;;;;10.65;7.40;;;;;;;8.03;63.34;102362.81;5012602;28;102760;-81
2022/03/16 06:28:18;;;;;;;10.82;7.68;;;;;;;8.02;63.28;102377.41;5012788;28;102554;-81
2022/03/16 06:30:45;;;;;;;11.48;7.80;;;;;;;8.03;62.38;102376.38;5015292;28;102530;-80
2022/03/16 06:33:11;;;;;;;10.07;6.93;;;;;;;8.03;62.58;102389.91;5011671;28;104011;-80
2022/03/16 06:35:37;;;;;;;10.15;7.30;;;;;;;8.03;62.44;102387.22;5014151;28;102283;-80
2022/03/16 06:38:07;;;;;;;9.18;6.70;;;;;;;8.02;63.15;102396.41;5013119;28;102045;-80
2022/03/16 06:40:34;;;;;;;7.20;4.95;;;;;;;8.03;62.43;102395.34;5013326;28;102542;-85
2022/03/16 06:43:01;;;;;;;8.48;6.60;;;;;;;8.02;62.97;102399.09;5012867;28;104047;-80
2022/03/16 06:45:29;;;;;;;8.60;6.55;;;;;;;8.01;62.31;102394.75;5014831;28;102083;-80
2022/03/16 06:47:58;;;;;;;8.32;5.95;;;;;;;8.03;62.55;102403.47;5013028;28;102150;-80
2022/03/16 06:50:27;;;;;;;9.35;6.53;;;;;;;8.02;62.80;102396.41;5013780;28;102357;-83
2022/03/16 06:52:56;;;;;;;10.13;6.60;;;;;;;8.03;62.81;102417.03;5011660;28;103924;-79
2022/03/16 06:55:29;;;;;;;8.85;6.50;;;;;;;8.02;61.97;102399.94;5013295;28;102300;-79
2022/03/16 06:57:55;;;;;;;8.10;5.57;;;;;;;8.03;62.38;102407.00;5010231;28;102757;-81
2022/03/16 07:00:22;;;;;;;9.98;6.05;;;;;;;8.04;62.41;102410.56;5014126;28;102418;-81
2022/03/16 07:02:55;;;;;;;7.68;5.65;;;;;;;8.03;62.51;102404.31;5010791;28;103234;-81
2022/03/16 07:05:25;;;;;;;8.85;6.18;;;;;;;8.04;62.42;102407.84;5011175;28;102044;-81
2022/03/16 07:07:51;;;;;;;;;;;;;;;8.04;62.56;102405.13;5012324;28;102648;-81
2022/03/16 07:10:20;;;;;;;9.52;5.50;;;;;;;8.04;62.37;102424.13;5010682;28;103720;-81
2022/03/16 07:12:59;;;;;;;8.18;5.47;;;;;;;8.05;61.74;102425.81;5010651;28;103906;-81
2022/03/16 07:15:26;;;;;;;8.23;5.90;;;;;;;8.05;62.79;102425.81;5009736;28;103966;-81
2022/03/16 07:17:54;;;;;;;9.07;5.68;;;;;;;8.05;61.94;102431.22;5012255;28;102094;-81
2022/03/16 07:20:21;;;;;;;8.48;5.68;;;;;;;8.05;61.68;102431.22;5014650;28;102245;-81
2022/03/16 07:23:01;;;;;;;9.50;5.10;;;;;;;8.06;62.30;102433.72;5011851;28;103108;-82
2022/03/16 07:25:29;;;;;;;8.10;5.45;;;;;;;8.06;61.85;102438.31;5011031;28;102241;-82
2022/03/16 07:27:56;;;;;;;6.60;4.97;;;;;;;8.07;62.10;102440.78;5012939;28;102307;-81
2022/03/16 07:30:24;;;;;;;9.07;5.82;;;;;;;8.05;61.32;102442.91;5014648;28;102245;-81
2022/03/16 07:32:51;;;;;;;9.63;5.10;;;;;;;8.06;61.83;102446.44;5011068;28;104125;-79
2022/03/16 07:35:17;;;;;;;10.38;5.57;;;;;;;8.06;61.17;102449.97;5011123;28;102679;-79
2022/03/16 07:37:44;;;;;;;9.10;5.70;;;;;;;8.08;61.07;102452.50;5009488;28;102532;-80
2022/03/16 07:40:11;;;;;;;8.30;5.45;;;;;;;8.08;61.47;102453.31;5011882;28;102238;-81
2022/03/16 07:42:38;;;;;;;9.55;5.60;;;;;;;8.09;60.56;102448.72;5010788;28;103965;-80
2022/03/16 07:45:05;;;;;;;8.63;5.50;;;;;;;8.07;60.82;102446.22;5013078;28;102399;-80
2022/03/16 07:47:33;;;;;;;9.52;5.53;;;;;;;8.08;60.75;102452.50;5011997;28;102388;-80
2022/03/16 07:50:00;;;;;;;8.73;5.28;;;;;;;8.08;61.07;102457.91;5012986;28;102300;-80
2022/03/16 07:52:27;;;;;;;8.55;5.65;;;;;;;8.08;60.96;102441.66;5011889;28;103860;-80
2022/03/16 07:54:54;;;;;;;6.78;5.28;;;;;;;8.08;61.48;102447.91;5011962;28;102396;-80
2022/03/16 07:57:20;;;;;;;8.90;5.40;;;;;;;8.09;60.43;102443.31;5011425;28;103366;-80
2022/03/16 07:59:47;;;;;;;10.20;5.68;;;;;;;8.10;60.93;102455.81;5013140;28;102237;-80
2022/03/16 08:02:15;;;;;;;7.80;5.80;;;;;;;8.07;60.56;102435.38;5010980;28;103799;-79
2022/03/16 08:04:43;;;;;;;9.98;5.95;;;;;;;8.09;59.96;102429.75;5009844;28;102486;-80
2022/03/16 08:07:10;;;;;;;8.60;5.47;;;;;;;8.09;60.44;102432.47;5003595;28;101963;-81
2022/03/16 08:09:36;;;;;;;7.35;5.22;;;;;;;8.09;60.87;102435.19;5007452;28;102168;-81
2022/03/16 08:12:04;;;;;;;10.93;5.95;;;;;;;8.10;59.99;102428.69;5010877;28;104044;-81
2022/03/16 08:14:30;;;;;;;9.38;5.63;;;;;;;8.10;60.81;102426.81;5006516;28;102578;-81
2022/03/16 08:16:57;;;;;;;9.80;5.15;;;;;;;8.10;60.22;102415.13;5010813;28;102428;-81
2022/03/16 08:19:23;;;;;;;8.90;4.88;;;;;;;8.10;61.14;102412.44;4998164;28;102767;-80
2022/03/16 08:21:51;;;;;;;10.20;5.70;;;;;;;8.10;60.27;102415.13;4999509;28;103917;-81
2022/03/16 08:24:19;;;;;;;;;;;;;;;8.11;61.27;102422.22;5007013;28;102492;-80
2022/03/16 08:26:45;;;;;;;8.80;5.07;;;;;;;8.12;60.26;102426.63;5004251;28;102216;-80
2022/03/16 08:29:14;;;;;;;10.48;5.70;;;;;;;8.10;60.06;102413.25;5002353;28;102777;-80
2022/03/16 08:31:41;;;;;;;10.85;5.40;;;;;;;8.10;59.82;102415.13;5010472;28;104265;-80
2022/03/16 08:34:07;;;;;;;7.53;4.90;;;;;;;8.12;60.56;102423.91;4998840;28;102034;-80
2022/03/16 08:36:34;;;;;;;8.30;5.28;;;;;;;8.12;60.22;102416.59;4990968;28;102246;-80
2022/03/16 08:39:03;;;;;;;8.75;5.40;;;;;;;8.13;59.97;102412.00;4992942;28;102278;-81
2022/03/16 08:41:32;;;;;;;8.43;4.85;;;;;;;8.13;59.21;102401.16;5010852;28;104951;-80
2022/03/16 08:43:59;;;;;;;8.68;5.55;;;;;;;8.12;60.16;102402.22;5015257;28;101977;-81
2022/03/16 08:46:26;;;;;;;9.27;5.47;;;;;;;8.12;59.64;102415.78;4996609;28;102007;-81
2022/03/16 08:48:52;;;;;;;7.68;5.82;;;;;;;8.12;59.84;102415.78;5008649;28;103006;-81
2022/03/16 08:51:21;;;;;;;9.30;5.17;;;;;;;8.11;60.23;102417.66;4996233;28;103937;-80
2022/03/16 08:53:47;;;;;;;13.38;5.72;;;;;;;8.13;59.81;102420.13;5014267;28;103005;-80
2022/03/16 08:56:15;;;;;;;10.55;5.28;;;;;;;8.13;59.94;102422.84;5010389;28;102129;-80
2022/03/16 08:58:43;;;;;;;11.05;5.57;;;;;;;8.13;60.31;102428.28;5007304;28;103854;-80
2022/03/16 09:01:24;;;;;;;7.13;4.97;;;;;;;8.12;60.18;102422.03;5010510;28;103788;-80
2022/03/16 09:03:51;;;;;;;8.23;5.63;;;;;;;8.12;60.08;102432.88;5011029;28;102252;-81
2022/03/16 09:06:18;;;;;;;9.50;5.00;;;;;;;8.12;60.00;102426.63;5012876;28;102540;-81
2022/03/16 09:08:44;;;;;;;10.73;5.60;;;;;;;8.12;60.37;102426.63;5015465;28;102544;-81
2022/03/16 09:11:10;;;;;;;8.93;5.25;;;;;;;8.13;60.72;102422.84;5013791;28;104043;-81
2022/03/16 09:13:39;;;;;;;6.57;4.90;;;;;;;8.12;59.69;102426.63;5012559;28;102643;-81
2022/03/16 09:16:07;;;;;;;8.75;5.05;;;;;;;8.12;60.71;102432.03;5013065;28;102383;-80
2022/03/16 09:18:33;;;;;;;9.07;5.10;;;;;;;8.11;60.08;102435.78;5014410;28;102076;-80
2022/03/16 09:21:01;;;;;;;8.25;4.93;;;;;;;8.09;59.98;102433.28;5014011;28;103971;-80
2022/03/16 09:23:31;;;;;;;7.03;5.50;;;;;;;8.08;60.34;102436.22;5014451;28;102278;-79
2022/03/16 09:25:58;;;;;;;7.75;5.00;;;;;;;8.07;60.29;102434.53;5012373;28;102107;-80
2022/03/16 09:28:26;;;;;;;8.02;4.80;;;;;;;8.07;60.29;102434.53;5013241;28;102381;-79
2022/03/16 09:30:54;;;;;;;6.18;4.70;;;;;;;8.05;59.80;102414.97;5011156;28;104382;-79
2022/03/16 09:33:24;;;;;;;6.18;4.80;;;;;;;8.03;59.68;102417.88;5008831;28;103025;-79
2022/03/16 09:35:52;;;;;;;6.93;4.70;;;;;;;8.04;59.22;102418.69;5010639;28;101910;-79
2022/03/16 09:38:19;;;;;;;5.85;4.70;;;;;;;8.05;59.43;102421.22;5014216;28;102081;-79
2022/03/16 09:40:48;;;;;;;5.30;4.47;;;;;;;8.06;60.14;102427.47;5013347;28;104085;-79
2022/03/16 09:43:19;;;;;;;9.40;4.97;;;;;;;8.05;60.39;102421.22;5010518;28;102414;-79
2022/03/16 09:45:54;;;;;;;6.63;4.20;;;;;;;8.05;60.05;102412.25;5010143;28;103488;-79
2022/03/16 09:48:26;;;;;;;5.68;4.50;;;;;;;8.06;59.97;102416.63;5013140;28;102206;-79
2022/03/16 09:50:53;;;;;;;6.75;4.10;;;;;;;8.05;60.30;102432.06;5012966;28;104340;-79
2022/03/16 09:53:22;;;;;;;7.05;4.47;;;;;;;8.05;60.65;102420.38;5013698;28;102335;-79
2022/03/16 09:55:52;;;;;;;5.25;3.63;;;;;;;8.05;60.10;102428.50;5013167;28;101888;-79
2022/03/16 09:58:20;;;;;;;9.73;4.10;;;;;;;8.05;60.79;102420.38;5014895;28;102175;-79
2022/03/16 10:00:46;;;;;;;4.53;4.03;;;;;;;8.04;60.50;102422.25;5007888;28;104160;-79
2022/03/16 10:03:15;;;;;;;6.40;4.10;;;;;;;8.04;60.15;102430.41;5011551;28;102240;-79
2022/03/16 10:05:46;;;;;;;6.50;3.90;;;;;;;8.04;59.96;102440.38;5011091;28;102179;-80
2022/03/16 10:08:14;;;;;;;6.97;3.90;;;;;;;8.02;59.48;102420.81;5003366;28;102167;-79
2022/03/16 10:13:26;;;;;;;5.30;3.78;;;;;;;8.01;59.36;102435.41;5007596;28;102552;-79
2022/03/16 10:15:55;;;;;;;5.20;3.95;;;;;;;8.00;58.78;102420.16;5010183;28;103294;-79
2022/03/16 10:18:23;;;;;;;6.55;3.75;;;;;;;7.99;58.95;102410.38;5011920;28;103981;-79
2022/03/16 10:20:52;;;;;;;6.13;3.75;;;;;;;7.99;59.33;102418.50;5008562;28;103833;-79
2022/03/16 10:23:20;;;;;;;5.53;3.58;;;;;;;7.98;58.83;102414.13;5010614;28;102099;-79
2022/03/16 10:25:51;;;;;;;9.82;3.70;;;;;;;8.00;59.90;102417.44;5010892;28;102084;-79
2022/03/16 10:28:20;;;;;;;4.75;2.97;;;;;;;8.00;60.27;102401.19;5005248;28;101977;-79
2022/03/16 10:30:55;;;;;;;5.30;3.33;;;;;;;7.99;59.62;102408.50;5009810;28;103782;-79
2022/03/16 10:33:23;;;;;;;4.38;3.22;;;;;;;7.99;59.47;102407.66;5011579;28;102605;-79
2022/03/16 10:36:00;;;;;;;5.18;3.20;;;;;;;7.99;59.88;102426.63;5012988;28;102452;-79
2022/03/16 10:38:27;;;;;;;4.57;3.50;;;;;;;7.97;58.73;102417.88;5012850;28;102617;-79
2022/03/16 10:40:56;;;;;;;5.82;2.95;;;;;;;7.97;59.80;102412.44;5012858;28;103690;-79
2022/03/16 10:48:59;;;;;;;3.17;2.63;;;;;;;7.97;59.01;102412.44;5012411;28;102071;-79
2022/03/16 10:51:27;;;;;;;5.50;2.85;;;;;;;7.95;58.82;102409.97;4993930;28;103907;-79
2022/03/16 10:53:56;;;;;;;4.23;2.87;;;;;;;7.95;59.27;102416.22;5013622;28;101949;-79
2022/03/16 10:56:23;;;;;;;4.73;2.60;;;;;;;7.93;58.20;102412.91;5011861;28;103649;-79
2022/03/16 10:58:54;;;;;;;5.00;2.72;;;;;;;7.93;58.61;102417.47;5013482;28;102296;-79
2022/03/16 11:01:40;;;;;;;4.63;2.53;;;;;;;7.92;58.95;102411.22;4996854;28;103809;-79
2022/03/16 11:04:09;;;;;;;3.67;2.25;;;;;;;7.91;58.28;102408.72;5010339;28;102287;-79
2022/03/16 11:06:41;;;;;;;2.58;2.05;;;;;;;7.90;58.54;102407.91;5011764;28;102027;-78
2022/03/16 11:09:10;;;;;;;3.53;2.30;;;;;;;7.91;58.92;102412.28;5014213;28;102272;-78
2022/03/16 11:14:24;;;;;;;3.90;2.22;;;;;;;7.92;59.72;102405.78;5011963;28;102053;-78
2022/03/16 11:16:51;;;;;;;3.33;2.45;;;;;;;7.93;59.05;102399.34;5011167;28;102395;-79
2022/03/16 11:19:22;;;;;;;5.13;2.60;;;;;;;7.92;58.98;102399.53;5011420;28;102811;-78
2022/03/16 11:22:00;;;;;;;3.42;2.13;;;;;;;7.90;59.42;102390.81;5011923;28;104118;-79
2022/03/16 11:24:29;;;;;;;2.72;1.90;;;;;;;7.90;59.20;102405.19;5012444;28;102153;-79
2022/03/16 11:27:32;;;;;;;2.95;2.35;;;;;;;7.89;58.54;102406.22;5011270;28;102196;-79
2022/03/16 11:30:16;;;;;;;3.72;2.28;;;;;;;7.91;59.31;102401.41;5008819;28;102278;-78
2022/03/16 11:32:45;;;;;;;2.03;1.83;;;;;;;7.90;59.14;102418.75;5004054;28;103872;-79
2022/03/16 11:35:13;;;;;;;;;;;;;;;7.90;59.93;102407.91;5012125;28;102129;-78